Lawton, Oklahoma
Current Conditions -  °F | °C
As of 1:58 PM on Wednesday 26 Nov 2014 (Local Time) from KFSI Reporting Station
Clear Clear  
Wind Chill: 15°   Ceiling: Unl
Heat Index: 15°   Visibility: 10mi
Dew Point: -2°   Wind: 16mph
Humidity: 33%   Direction: 10°N
Pressure: 30.19"   Gusts: 21mph
Location:  34.61°N, 98.39°W
Report Text: KFSI 261958Z AUTO 01014G18KT 10SM CLR 15/M01 A3019 RMK AO2 SLP224 T01451015
Loading
Personal Weather Stations






























Interactive Weather Map New forecast layout! Learn more

10-Day Weather Forecast

Advertisements
Track Severe Weather on mobile